sensor_id;sensor_type;location;lat;lon;timestamp;P1;durP1;ratioP1;P2;durP2;ratioP2
55800;SDS011;41730;51.960;20.158;2023-11-18T00:02:19;31.70;;;15.50;;
55800;SDS011;41730;51.960;20.158;2023-11-18T00:04:52;29.10;;;15.70;;
55800;SDS011;41730;51.960;20.158;2023-11-18T00:07:24;27.70;;;15.00;;
55800;SDS011;41730;51.960;20.158;2023-11-18T00:09:57;31.40;;;14.90;;
55800;SDS011;41730;51.960;20.158;2023-11-18T00:12:29;32.30;;;16.90;;
55800;SDS011;41730;51.960;20.158;2023-11-18T00:15:03;29.80;;;14.20;;
55800;SDS011;41730;51.960;20.158;2023-11-18T00:17:37;30.10;;;14.30;;
55800;SDS011;41730;51.960;20.158;2023-11-18T00:20:09;30.50;;;15.10;;
55800;SDS011;41730;51.960;20.158;2023-11-18T00:22:42;28.10;;;13.80;;
55800;SDS011;41730;51.960;20.158;2023-11-18T00:25:13;30.20;;;15.60;;
55800;SDS011;41730;51.960;20.158;2023-11-18T00:27:45;32.20;;;16.40;;
55800;SDS011;41730;51.960;20.158;2023-11-18T00:30:17;32.40;;;16.10;;
55800;SDS011;41730;51.960;20.158;2023-11-18T00:32:48;32.70;;;14.50;;
55800;SDS011;41730;51.960;20.158;2023-11-18T00:35:20;32.30;;;15.40;;
55800;SDS011;41730;51.960;20.158;2023-11-18T00:37:52;33.00;;;16.20;;
55800;SDS011;41730;51.960;20.158;2023-11-18T00:40:24;32.70;;;16.70;;
55800;SDS011;41730;51.960;20.158;2023-11-18T00:42:58;31.70;;;14.50;;
55800;SDS011;41730;51.960;20.158;2023-11-18T00:45:29;26.40;;;13.50;;
55800;SDS011;41730;51.960;20.158;2023-11-18T00:48:01;29.90;;;15.60;;
55800;SDS011;41730;51.960;20.158;2023-11-18T00:50:33;29.30;;;15.60;;
55800;SDS011;41730;51.960;20.158;2023-11-18T00:53:05;30.80;;;15.90;;
55800;SDS011;41730;51.960;20.158;2023-11-18T00:55:38;28.60;;;14.80;;
55800;SDS011;41730;51.960;20.158;2023-11-18T00:58:09;25.60;;;14.10;;
55800;SDS011;41730;51.960;20.158;2023-11-18T01:00:41;35.20;;;23.40;;
55800;SDS011;41730;51.960;20.158;2023-11-18T01:03:13;21.80;;;11.20;;
55800;SDS011;41730;51.960;20.158;2023-11-18T01:05:45;22.00;;;11.90;;
55800;SDS011;41730;51.960;20.158;2023-11-18T01:08:16;24.30;;;12.40;;
55800;SDS011;41730;51.960;20.158;2023-11-18T01:10:48;23.00;;;11.40;;
55800;SDS011;41730;51.960;20.158;2023-11-18T01:13:20;25.60;;;12.70;;
55800;SDS011;41730;51.960;20.158;2023-11-18T01:15:51;28.60;;;13.30;;
55800;SDS011;41730;51.960;20.158;2023-11-18T01:18:23;24.70;;;13.00;;
55800;SDS011;41730;51.960;20.158;2023-11-18T01:20:55;21.90;;;12.10;;
55800;SDS011;41730;51.960;20.158;2023-11-18T01:23:27;24.50;;;11.50;;
55800;SDS011;41730;51.960;20.158;2023-11-18T01:25:58;23.80;;;12.30;;
55800;SDS011;41730;51.960;20.158;2023-11-18T01:28:33;24.40;;;12.20;;
55800;SDS011;41730;51.960;20.158;2023-11-18T01:31:09;25.60;;;12.80;;
55800;SDS011;41730;51.960;20.158;2023-11-18T01:33:42;21.20;;;10.80;;
55800;SDS011;41730;51.960;20.158;2023-11-18T01:36:13;26.20;;;12.40;;
55800;SDS011;41730;51.960;20.158;2023-11-18T01:38:46;24.40;;;12.50;;
55800;SDS011;41730;51.960;20.158;2023-11-18T01:41:17;20.40;;;11.50;;
55800;SDS011;41730;51.960;20.158;2023-11-18T01:43:49;25.20;;;13.00;;
55800;SDS011;41730;51.960;20.158;2023-11-18T01:46:21;22.00;;;11.60;;
55800;SDS011;41730;51.960;20.158;2023-11-18T01:48:53;22.20;;;11.90;;
55800;SDS011;41730;51.960;20.158;2023-11-18T01:51:26;19.30;;;10.60;;
55800;SDS011;41730;51.960;20.158;2023-11-18T01:53:59;21.90;;;10.60;;
55800;SDS011;41730;51.960;20.158;2023-11-18T01:56:32;16.80;;;10.00;;
55800;SDS011;41730;51.960;20.158;2023-11-18T01:59:04;19.70;;;10.30;;
55800;SDS011;41730;51.960;20.158;2023-11-18T02:01:38;20.10;;;10.40;;
55800;SDS011;41730;51.960;20.158;2023-11-18T02:04:11;20.10;;;10.50;;
55800;SDS011;41730;51.960;20.158;2023-11-18T02:06:44;20.20;;;11.00;;
55800;SDS011;41730;51.960;20.158;2023-11-18T02:09:18;20.00;;;10.50;;
55800;SDS011;41730;51.960;20.158;2023-11-18T02:11:56;18.70;;;10.30;;
55800;SDS011;41730;51.960;20.158;2023-11-18T02:14:30;17.50;;;8.70;;
55800;SDS011;41730;51.960;20.158;2023-11-18T02:17:05;20.70;;;11.10;;
55800;SDS011;41730;51.960;20.158;2023-11-18T02:19:40;17.10;;;9.10;;
55800;SDS011;41730;51.960;20.158;2023-11-18T02:22:12;27.10;;;19.00;;
55800;SDS011;41730;51.960;20.158;2023-11-18T02:24:45;20.10;;;10.60;;
55800;SDS011;41730;51.960;20.158;2023-11-18T02:27:17;19.80;;;10.90;;
55800;SDS011;41730;51.960;20.158;2023-11-18T02:29:52;20.00;;;9.10;;
55800;SDS011;41730;51.960;20.158;2023-11-18T02:32:29;25.10;;;17.30;;
55800;SDS011;41730;51.960;20.158;2023-11-18T02:35:09;16.50;;;9.00;;
55800;SDS011;41730;51.960;20.158;2023-11-18T02:37:45;19.10;;;10.40;;
55800;SDS011;41730;51.960;20.158;2023-11-18T02:40:22;17.50;;;9.80;;
55800;SDS011;41730;51.960;20.158;2023-11-18T02:42:59;20.50;;;11.10;;
55800;SDS011;41730;51.960;20.158;2023-11-18T02:45:33;21.50;;;10.90;;
55800;SDS011;41730;51.960;20.158;2023-11-18T02:48:06;23.60;;;11.30;;
55800;SDS011;41730;51.960;20.158;2023-11-18T02:50:38;21.00;;;10.90;;
55800;SDS011;41730;51.960;20.158;2023-11-18T02:53:11;19.00;;;10.00;;
55800;SDS011;41730;51.960;20.158;2023-11-18T02:55:43;19.00;;;9.30;;
55800;SDS011;41730;51.960;20.158;2023-11-18T02:58:15;20.70;;;9.80;;
55800;SDS011;41730;51.960;20.158;2023-11-18T03:00:47;23.70;;;11.70;;
55800;SDS011;41730;51.960;20.158;2023-11-18T03:03:18;20.20;;;10.70;;
55800;SDS011;41730;51.960;20.158;2023-11-18T03:05:50;20.50;;;10.80;;
55800;SDS011;41730;51.960;20.158;2023-11-18T03:08:23;19.90;;;10.30;;
55800;SDS011;41730;51.960;20.158;2023-11-18T03:10:57;19.70;;;9.80;;
55800;SDS011;41730;51.960;20.158;2023-11-18T03:13:28;18.70;;;9.70;;
55800;SDS011;41730;51.960;20.158;2023-11-18T03:16:00;17.70;;;9.10;;
55800;SDS011;41730;51.960;20.158;2023-11-18T03:18:39;19.80;;;9.50;;
55800;SDS011;41730;51.960;20.158;2023-11-18T03:21:12;17.20;;;8.80;;
55800;SDS011;41730;51.960;20.158;2023-11-18T03:23:44;16.80;;;9.60;;
55800;SDS011;41730;51.960;20.158;2023-11-18T03:26:15;15.80;;;8.20;;
55800;SDS011;41730;51.960;20.158;2023-11-18T03:28:47;14.70;;;8.10;;
55800;SDS011;41730;51.960;20.158;2023-11-18T03:31:19;22.00;;;16.50;;
55800;SDS011;41730;51.960;20.158;2023-11-18T03:33:50;16.30;;;7.90;;
55800;SDS011;41730;51.960;20.158;2023-11-18T03:36:22;13.60;;;8.00;;
55800;SDS011;41730;51.960;20.158;2023-11-18T03:38:53;16.50;;;8.50;;
55800;SDS011;41730;51.960;20.158;2023-11-18T03:41:25;15.30;;;7.80;;
55800;SDS011;41730;51.960;20.158;2023-11-18T03:43:57;19.70;;;9.10;;
55800;SDS011;41730;51.960;20.158;2023-11-18T03:46:29;12.70;;;7.30;;
55800;SDS011;41730;51.960;20.158;2023-11-18T03:49:02;15.30;;;8.40;;
55800;SDS011;41730;51.960;20.158;2023-11-18T03:51:35;12.80;;;7.20;;
55800;SDS011;41730;51.960;20.158;2023-11-18T03:54:07;17.70;;;9.10;;
55800;SDS011;41730;51.960;20.158;2023-11-18T03:56:38;17.10;;;9.40;;
55800;SDS011;41730;51.960;20.158;2023-11-18T03:59:10;14.60;;;7.70;;
55800;SDS011;41730;51.960;20.158;2023-11-18T04:01:42;19.30;;;9.10;;
55800;SDS011;41730;51.960;20.158;2023-11-18T04:04:13;15.30;;;8.60;;
55800;SDS011;41730;51.960;20.158;2023-11-18T04:06:46;14.30;;;7.30;;
55800;SDS011;41730;51.960;20.158;2023-11-18T04:09:17;12.10;;;6.80;;
55800;SDS011;41730;51.960;20.158;2023-11-18T04:11:49;16.40;;;9.00;;
55800;SDS011;41730;51.960;20.158;2023-11-18T04:14:21;18.50;;;9.00;;
55800;SDS011;41730;51.960;20.158;2023-11-18T04:16:53;18.20;;;9.50;;
55800;SDS011;41730;51.960;20.158;2023-11-18T04:19:26;15.70;;;8.90;;
55800;SDS011;41730;51.960;20.158;2023-11-18T04:21:57;18.20;;;10.40;;
55800;SDS011;41730;51.960;20.158;2023-11-18T04:24:29;16.70;;;9.60;;
55800;SDS011;41730;51.960;20.158;2023-11-18T04:27:00;19.10;;;10.20;;
55800;SDS011;41730;51.960;20.158;2023-11-18T04:29:32;16.30;;;9.10;;
55800;SDS011;41730;51.960;20.158;2023-11-18T04:32:06;15.70;;;8.10;;
55800;SDS011;41730;51.960;20.158;2023-11-18T04:34:38;17.30;;;9.80;;
55800;SDS011;41730;51.960;20.158;2023-11-18T04:37:11;16.90;;;9.00;;
55800;SDS011;41730;51.960;20.158;2023-11-18T04:39:44;13.30;;;7.50;;
55800;SDS011;41730;51.960;20.158;2023-11-18T04:42:15;15.00;;;8.60;;
55800;SDS011;41730;51.960;20.158;2023-11-18T04:44:51;15.10;;;8.30;;
55800;SDS011;41730;51.960;20.158;2023-11-18T04:47:36;14.90;;;8.20;;
55800;SDS011;41730;51.960;20.158;2023-11-18T04:50:22;16.80;;;8.40;;
55800;SDS011;41730;51.960;20.158;2023-11-18T04:53:07;17.90;;;9.40;;
55800;SDS011;41730;51.960;20.158;2023-11-18T04:55:52;15.50;;;9.10;;
55800;SDS011;41730;51.960;20.158;2023-11-18T04:58:37;15.10;;;8.10;;
55800;SDS011;41730;51.960;20.158;2023-11-18T05:01:24;16.80;;;8.80;;
55800;SDS011;41730;51.960;20.158;2023-11-18T05:04:10;15.90;;;8.70;;
55800;SDS011;41730;51.960;20.158;2023-11-18T05:06:53;16.90;;;9.60;;
55800;SDS011;41730;51.960;20.158;2023-11-18T05:09:37;14.20;;;7.60;;
55800;SDS011;41730;51.960;20.158;2023-11-18T05:12:20;16.50;;;9.00;;
55800;SDS011;41730;51.960;20.158;2023-11-18T05:15:05;15.20;;;7.80;;
55800;SDS011;41730;51.960;20.158;2023-11-18T05:17:47;18.20;;;9.20;;
55800;SDS011;41730;51.960;20.158;2023-11-18T05:20:20;18.90;;;9.60;;
55800;SDS011;41730;51.960;20.158;2023-11-18T05:22:52;14.80;;;8.70;;
55800;SDS011;41730;51.960;20.158;2023-11-18T05:25:24;16.50;;;9.30;;
55800;SDS011;41730;51.960;20.158;2023-11-18T05:27:55;16.70;;;10.00;;
55800;SDS011;41730;51.960;20.158;2023-11-18T05:30:27;13.90;;;7.80;;
55800;SDS011;41730;51.960;20.158;2023-11-18T05:33:01;15.70;;;9.30;;
55800;SDS011;41730;51.960;20.158;2023-11-18T05:35:34;19.10;;;13.90;;
55800;SDS011;41730;51.960;20.158;2023-11-18T05:38:05;16.50;;;9.30;;
55800;SDS011;41730;51.960;20.158;2023-11-18T05:40:38;16.20;;;9.20;;
55800;SDS011;41730;51.960;20.158;2023-11-18T05:43:12;15.70;;;9.40;;
55800;SDS011;41730;51.960;20.158;2023-11-18T05:45:48;14.90;;;8.80;;
55800;SDS011;41730;51.960;20.158;2023-11-18T05:48:43;16.60;;;8.80;;
55800;SDS011;41730;51.960;20.158;2023-11-18T05:51:18;13.70;;;7.50;;
55800;SDS011;41730;51.960;20.158;2023-11-18T05:53:51;13.60;;;8.00;;
55800;SDS011;41730;51.960;20.158;2023-11-18T05:56:23;16.70;;;9.30;;
55800;SDS011;41730;51.960;20.158;2023-11-18T05:58:55;14.20;;;7.80;;
55800;SDS011;41730;51.960;20.158;2023-11-18T06:01:26;14.70;;;8.50;;
55800;SDS011;41730;51.960;20.158;2023-11-18T06:03:58;14.70;;;8.60;;
55800;SDS011;41730;51.960;20.158;2023-11-18T06:06:30;12.90;;;7.20;;
55800;SDS011;41730;51.960;20.158;2023-11-18T06:09:02;13.70;;;8.20;;
55800;SDS011;41730;51.960;20.158;2023-11-18T06:11:37;11.30;;;6.40;;
55800;SDS011;41730;51.960;20.158;2023-11-18T06:14:09;11.10;;;5.80;;
55800;SDS011;41730;51.960;20.158;2023-11-18T06:16:41;13.30;;;7.10;;
55800;SDS011;41730;51.960;20.158;2023-11-18T06:19:13;11.10;;;6.80;;
55800;SDS011;41730;51.960;20.158;2023-11-18T06:21:45;13.10;;;7.10;;
55800;SDS011;41730;51.960;20.158;2023-11-18T06:24:17;12.30;;;7.00;;
55800;SDS011;41730;51.960;20.158;2023-11-18T06:26:49;11.10;;;6.60;;
55800;SDS011;41730;51.960;20.158;2023-11-18T06:29:21;10.20;;;5.40;;
55800;SDS011;41730;51.960;20.158;2023-11-18T06:31:53;12.70;;;6.70;;
55800;SDS011;41730;51.960;20.158;2023-11-18T06:34:25;12.60;;;7.70;;
55800;SDS011;41730;51.960;20.158;2023-11-18T06:36:56;13.30;;;7.00;;
55800;SDS011;41730;51.960;20.158;2023-11-18T06:39:28;12.90;;;5.80;;
55800;SDS011;41730;51.960;20.158;2023-11-18T06:42:03;12.40;;;6.40;;
55800;SDS011;41730;51.960;20.158;2023-11-18T06:44:39;12.00;;;7.10;;
55800;SDS011;41730;51.960;20.158;2023-11-18T06:47:11;9.20;;;5.00;;
55800;SDS011;41730;51.960;20.158;2023-11-18T06:49:42;11.20;;;5.60;;
55800;SDS011;41730;51.960;20.158;2023-11-18T06:52:15;9.10;;;5.10;;
55800;SDS011;41730;51.960;20.158;2023-11-18T06:54:47;9.40;;;6.60;;
55800;SDS011;41730;51.960;20.158;2023-11-18T06:57:20;7.70;;;4.00;;
55800;SDS011;41730;51.960;20.158;2023-11-18T06:59:53;12.10;;;6.50;;
55800;SDS011;41730;51.960;20.158;2023-11-18T07:02:24;11.00;;;4.40;;
55800;SDS011;41730;51.960;20.158;2023-11-18T07:04:56;11.30;;;6.20;;
55800;SDS011;41730;51.960;20.158;2023-11-18T07:07:28;10.10;;;5.70;;
55800;SDS011;41730;51.960;20.158;2023-11-18T07:10:00;12.10;;;7.30;;
55800;SDS011;41730;51.960;20.158;2023-11-18T07:12:33;10.00;;;6.50;;
55800;SDS011;41730;51.960;20.158;2023-11-18T07:15:07;13.10;;;7.10;;
55800;SDS011;41730;51.960;20.158;2023-11-18T07:17:40;10.10;;;6.30;;
55800;SDS011;41730;51.960;20.158;2023-11-18T07:20:13;11.40;;;6.30;;
55800;SDS011;41730;51.960;20.158;2023-11-18T07:22:45;12.00;;;6.40;;
55800;SDS011;41730;51.960;20.158;2023-11-18T07:25:18;8.60;;;5.30;;
55800;SDS011;41730;51.960;20.158;2023-11-18T07:27:51;10.00;;;6.00;;
55800;SDS011;41730;51.960;20.158;2023-11-18T07:30:24;9.60;;;5.20;;
55800;SDS011;41730;51.960;20.158;2023-11-18T07:32:55;10.50;;;5.40;;
55800;SDS011;41730;51.960;20.158;2023-11-18T07:35:29;10.00;;;5.50;;
55800;SDS011;41730;51.960;20.158;2023-11-18T07:38:01;8.20;;;5.60;;
55800;SDS011;41730;51.960;20.158;2023-11-18T07:40:35;13.80;;;7.20;;
55800;SDS011;41730;51.960;20.158;2023-11-18T07:43:14;7.10;;;4.80;;
55800;SDS011;41730;51.960;20.158;2023-11-18T07:45:45;7.70;;;4.10;;
55800;SDS011;41730;51.960;20.158;2023-11-18T07:48:20;6.70;;;4.00;;
55800;SDS011;41730;51.960;20.158;2023-11-18T07:50:53;9.90;;;6.10;;
55800;SDS011;41730;51.960;20.158;2023-11-18T07:53:26;10.90;;;6.80;;
55800;SDS011;41730;51.960;20.158;2023-11-18T07:55:58;7.40;;;4.60;;
55800;SDS011;41730;51.960;20.158;2023-11-18T07:58:30;10.70;;;6.80;;
55800;SDS011;41730;51.960;20.158;2023-11-18T08:01:05;11.80;;;6.80;;
55800;SDS011;41730;51.960;20.158;2023-11-18T08:03:39;9.00;;;5.90;;
55800;SDS011;41730;51.960;20.158;2023-11-18T08:06:12;10.70;;;5.00;;
55800;SDS011;41730;51.960;20.158;2023-11-18T08:08:43;8.80;;;4.80;;
55800;SDS011;41730;51.960;20.158;2023-11-18T08:11:16;6.90;;;4.40;;
55800;SDS011;41730;51.960;20.158;2023-11-18T08:13:49;10.40;;;6.10;;
55800;SDS011;41730;51.960;20.158;2023-11-18T08:16:22;10.20;;;6.90;;
55800;SDS011;41730;51.960;20.158;2023-11-18T08:18:57;8.90;;;5.00;;
55800;SDS011;41730;51.960;20.158;2023-11-18T08:21:30;9.40;;;4.80;;
55800;SDS011;41730;51.960;20.158;2023-11-18T08:24:03;9.10;;;5.80;;
55800;SDS011;41730;51.960;20.158;2023-11-18T08:26:36;11.60;;;5.90;;
55800;SDS011;41730;51.960;20.158;2023-11-18T08:29:08;12.70;;;6.60;;
55800;SDS011;41730;51.960;20.158;2023-11-18T08:31:40;13.20;;;7.10;;
55800;SDS011;41730;51.960;20.158;2023-11-18T08:34:12;14.00;;;7.50;;
55800;SDS011;41730;51.960;20.158;2023-11-18T08:36:47;9.00;;;4.90;;
55800;SDS011;41730;51.960;20.158;2023-11-18T08:39:20;13.10;;;7.20;;
55800;SDS011;41730;51.960;20.158;2023-11-18T08:41:54;8.10;;;5.00;;
55800;SDS011;41730;51.960;20.158;2023-11-18T08:44:25;10.00;;;6.40;;
55800;SDS011;41730;51.960;20.158;2023-11-18T08:46:57;10.30;;;6.50;;
55800;SDS011;41730;51.960;20.158;2023-11-18T08:49:34;12.80;;;7.20;;
55800;SDS011;41730;51.960;20.158;2023-11-18T08:52:08;11.00;;;4.40;;
55800;SDS011;41730;51.960;20.158;2023-11-18T08:54:41;9.40;;;6.20;;
55800;SDS011;41730;51.960;20.158;2023-11-18T08:57:34;10.10;;;5.90;;
55800;SDS011;41730;51.960;20.158;2023-11-18T09:00:21;13.50;;;8.50;;
55800;SDS011;41730;51.960;20.158;2023-11-18T09:03:09;16.00;;;7.70;;
55800;SDS011;41730;51.960;20.158;2023-11-18T09:05:46;16.60;;;8.20;;
55800;SDS011;41730;51.960;20.158;2023-11-18T09:08:26;14.20;;;6.60;;
55800;SDS011;41730;51.960;20.158;2023-11-18T09:11:00;15.00;;;7.90;;
55800;SDS011;41730;51.960;20.158;2023-11-18T09:13:34;13.00;;;7.30;;
55800;SDS011;41730;51.960;20.158;2023-11-18T09:16:07;9.70;;;6.30;;
55800;SDS011;41730;51.960;20.158;2023-11-18T09:18:40;9.60;;;5.70;;
55800;SDS011;41730;51.960;20.158;2023-11-18T09:21:13;9.50;;;5.80;;
55800;SDS011;41730;51.960;20.158;2023-11-18T09:23:48;8.80;;;5.60;;
55800;SDS011;41730;51.960;20.158;2023-11-18T09:26:19;10.50;;;5.70;;
55800;SDS011;41730;51.960;20.158;2023-11-18T09:28:51;9.10;;;6.00;;
55800;SDS011;41730;51.960;20.158;2023-11-18T09:31:23;12.50;;;7.30;;
55800;SDS011;41730;51.960;20.158;2023-11-18T09:33:55;14.10;;;11.20;;
55800;SDS011;41730;51.960;20.158;2023-11-18T09:36:28;8.40;;;4.90;;
55800;SDS011;41730;51.960;20.158;2023-11-18T09:39:00;8.50;;;5.30;;
55800;SDS011;41730;51.960;20.158;2023-11-18T09:41:32;10.00;;;5.70;;
55800;SDS011;41730;51.960;20.158;2023-11-18T09:44:05;10.30;;;5.10;;
55800;SDS011;41730;51.960;20.158;2023-11-18T09:46:41;10.40;;;6.50;;
55800;SDS011;41730;51.960;20.158;2023-11-18T09:49:26;8.10;;;4.50;;
55800;SDS011;41730;51.960;20.158;2023-11-18T09:52:03;7.00;;;4.30;;
55800;SDS011;41730;51.960;20.158;2023-11-18T09:54:39;9.60;;;4.90;;
55800;SDS011;41730;51.960;20.158;2023-11-18T09:57:16;9.30;;;5.60;;
55800;SDS011;41730;51.960;20.158;2023-11-18T09:59:57;11.20;;;6.40;;
55800;SDS011;41730;51.960;20.158;2023-11-18T10:02:49;11.70;;;5.50;;
55800;SDS011;41730;51.960;20.158;2023-11-18T10:05:23;8.70;;;4.50;;
55800;SDS011;41730;51.960;20.158;2023-11-18T10:10:30;8.10;;;4.70;;
55800;SDS011;41730;51.960;20.158;2023-11-18T10:13:05;9.60;;;5.90;;
55800;SDS011;41730;51.960;20.158;2023-11-18T10:15:51;10.60;;;5.80;;
55800;SDS011;41730;51.960;20.158;2023-11-18T10:18:22;9.30;;;5.30;;
55800;SDS011;41730;51.960;20.158;2023-11-18T10:23:27;10.80;;;5.50;;
55800;SDS011;41730;51.960;20.158;2023-11-18T10:26:02;8.20;;;5.20;;
55800;SDS011;41730;51.960;20.158;2023-11-18T10:28:36;9.90;;;4.70;;
55800;SDS011;41730;51.960;20.158;2023-11-18T10:31:07;8.80;;;4.20;;
55800;SDS011;41730;51.960;20.158;2023-11-18T10:33:48;12.10;;;6.60;;
55800;SDS011;41730;51.960;20.158;2023-11-18T10:36:21;11.60;;;6.20;;
55800;SDS011;41730;51.960;20.158;2023-11-18T10:38:53;15.70;;;10.50;;
55800;SDS011;41730;51.960;20.158;2023-11-18T10:41:24;7.60;;;4.60;;
55800;SDS011;41730;51.960;20.158;2023-11-18T10:44:08;10.40;;;6.60;;
55800;SDS011;41730;51.960;20.158;2023-11-18T10:46:48;9.00;;;5.40;;
55800;SDS011;41730;51.960;20.158;2023-11-18T10:49:22;10.10;;;6.20;;
55800;SDS011;41730;51.960;20.158;2023-11-18T10:51:54;8.70;;;5.30;;
55800;SDS011;41730;51.960;20.158;2023-11-18T10:54:30;13.60;;;7.80;;
55800;SDS011;41730;51.960;20.158;2023-11-18T10:57:02;15.40;;;7.30;;
55800;SDS011;41730;51.960;20.158;2023-11-18T10:59:37;13.10;;;8.00;;
55800;SDS011;41730;51.960;20.158;2023-11-18T11:02:41;12.90;;;7.60;;
55800;SDS011;41730;51.960;20.158;2023-11-18T11:05:18;12.90;;;7.30;;
55800;SDS011;41730;51.960;20.158;2023-11-18T11:08:01;12.60;;;5.90;;
55800;SDS011;41730;51.960;20.158;2023-11-18T11:10:34;12.00;;;6.20;;
55800;SDS011;41730;51.960;20.158;2023-11-18T11:13:10;13.30;;;6.90;;
55800;SDS011;41730;51.960;20.158;2023-11-18T11:15:43;18.00;;;9.40;;
55800;SDS011;41730;51.960;20.158;2023-11-18T11:18:24;14.80;;;7.70;;
55800;SDS011;41730;51.960;20.158;2023-11-18T11:21:06;12.20;;;6.40;;
55800;SDS011;41730;51.960;20.158;2023-11-18T11:23:49;16.30;;;8.60;;
55800;SDS011;41730;51.960;20.158;2023-11-18T11:26:26;20.30;;;9.60;;
55800;SDS011;41730;51.960;20.158;2023-11-18T11:29:13;16.80;;;8.40;;
55800;SDS011;41730;51.960;20.158;2023-11-18T11:31:59;15.30;;;8.40;;
55800;SDS011;41730;51.960;20.158;2023-11-18T11:37:36;18.00;;;9.60;;
55800;SDS011;41730;51.960;20.158;2023-11-18T11:40:11;13.60;;;7.70;;
55800;SDS011;41730;51.960;20.158;2023-11-18T11:42:51;14.80;;;9.40;;
55800;SDS011;41730;51.960;20.158;2023-11-18T11:45:24;17.70;;;10.50;;
55800;SDS011;41730;51.960;20.158;2023-11-18T11:47:59;18.40;;;11.00;;
55800;SDS011;41730;51.960;20.158;2023-11-18T11:53:44;13.70;;;7.20;;
55800;SDS011;41730;51.960;20.158;2023-11-18T11:56:20;15.50;;;8.40;;
55800;SDS011;41730;51.960;20.158;2023-11-18T11:59:09;17.20;;;9.30;;
55800;SDS011;41730;51.960;20.158;2023-11-18T12:01:41;13.50;;;8.70;;
55800;SDS011;41730;51.960;20.158;2023-11-18T12:04:16;14.40;;;7.90;;
55800;SDS011;41730;51.960;20.158;2023-11-18T12:06:57;13.80;;;8.20;;
55800;SDS011;41730;51.960;20.158;2023-11-18T12:09:42;12.80;;;7.90;;
55800;SDS011;41730;51.960;20.158;2023-11-18T12:12:19;15.20;;;8.50;;
55800;SDS011;41730;51.960;20.158;2023-11-18T12:14:55;18.30;;;8.50;;
55800;SDS011;41730;51.960;20.158;2023-11-18T12:20:46;12.00;;;7.20;;
55800;SDS011;41730;51.960;20.158;2023-11-18T12:23:22;14.50;;;8.20;;
55800;SDS011;41730;51.960;20.158;2023-11-18T12:25:54;14.80;;;8.50;;
55800;SDS011;41730;51.960;20.158;2023-11-18T12:28:27;13.80;;;7.60;;
55800;SDS011;41730;51.960;20.158;2023-11-18T12:31:04;14.60;;;7.70;;
55800;SDS011;41730;51.960;20.158;2023-11-18T12:34:02;16.20;;;9.40;;
55800;SDS011;41730;51.960;20.158;2023-11-18T12:42:59;13.60;;;7.20;;
55800;SDS011;41730;51.960;20.158;2023-11-18T12:45:43;12.30;;;7.30;;
55800;SDS011;41730;51.960;20.158;2023-11-18T12:48:28;14.70;;;8.90;;
55800;SDS011;41730;51.960;20.158;2023-11-18T12:51:05;9.00;;;4.70;;
55800;SDS011;41730;51.960;20.158;2023-11-18T12:53:41;15.50;;;9.40;;
55800;SDS011;41730;51.960;20.158;2023-11-18T12:56:13;15.10;;;9.00;;
55800;SDS011;41730;51.960;20.158;2023-11-18T12:58:47;13.90;;;8.60;;
55800;SDS011;41730;51.960;20.158;2023-11-18T13:01:21;11.00;;;7.10;;
55800;SDS011;41730;51.960;20.158;2023-11-18T13:03:56;17.00;;;9.10;;
55800;SDS011;41730;51.960;20.158;2023-11-18T13:06:30;15.20;;;8.90;;
55800;SDS011;41730;51.960;20.158;2023-11-18T13:09:03;16.60;;;9.40;;
55800;SDS011;41730;51.960;20.158;2023-11-18T13:11:38;15.50;;;9.60;;
55800;SDS011;41730;51.960;20.158;2023-11-18T13:14:11;17.10;;;9.10;;
55800;SDS011;41730;51.960;20.158;2023-11-18T13:16:45;17.80;;;10.10;;
55800;SDS011;41730;51.960;20.158;2023-11-18T13:19:24;17.20;;;9.10;;
55800;SDS011;41730;51.960;20.158;2023-11-18T13:21:59;19.20;;;9.90;;
55800;SDS011;41730;51.960;20.158;2023-11-18T13:24:32;20.50;;;9.90;;
55800;SDS011;41730;51.960;20.158;2023-11-18T13:27:08;20.20;;;11.20;;
55800;SDS011;41730;51.960;20.158;2023-11-18T13:29:43;10.70;;;7.00;;
55800;SDS011;41730;51.960;20.158;2023-11-18T13:32:18;13.30;;;7.10;;
55800;SDS011;41730;51.960;20.158;2023-11-18T13:34:54;12.40;;;7.50;;
55800;SDS011;41730;51.960;20.158;2023-11-18T13:37:26;13.10;;;8.20;;
55800;SDS011;41730;51.960;20.158;2023-11-18T13:39:59;23.40;;;17.30;;
55800;SDS011;41730;51.960;20.158;2023-11-18T13:42:34;20.20;;;11.10;;
55800;SDS011;41730;51.960;20.158;2023-11-18T13:45:11;17.10;;;9.50;;
55800;SDS011;41730;51.960;20.158;2023-11-18T13:48:04;17.80;;;8.60;;
55800;SDS011;41730;51.960;20.158;2023-11-18T13:50:40;13.00;;;6.30;;
55800;SDS011;41730;51.960;20.158;2023-11-18T13:55:44;15.80;;;8.30;;
55800;SDS011;41730;51.960;20.158;2023-11-18T13:58:17;20.50;;;7.90;;
55800;SDS011;41730;51.960;20.158;2023-11-18T14:00:50;17.80;;;10.00;;
55800;SDS011;41730;51.960;20.158;2023-11-18T14:03:21;18.10;;;9.50;;
55800;SDS011;41730;51.960;20.158;2023-11-18T14:05:57;19.30;;;11.30;;
55800;SDS011;41730;51.960;20.158;2023-11-18T14:08:30;20.80;;;11.00;;
55800;SDS011;41730;51.960;20.158;2023-11-18T14:11:04;20.90;;;11.30;;
55800;SDS011;41730;51.960;20.158;2023-11-18T14:13:44;20.20;;;11.00;;
55800;SDS011;41730;51.960;20.158;2023-11-18T14:16:17;19.50;;;10.60;;
55800;SDS011;41730;51.960;20.158;2023-11-18T14:18:52;21.40;;;10.80;;
55800;SDS011;41730;51.960;20.158;2023-11-18T14:21:24;20.50;;;11.60;;
55800;SDS011;41730;51.960;20.158;2023-11-18T14:23:56;25.00;;;13.20;;
55800;SDS011;41730;51.960;20.158;2023-11-18T14:26:30;19.60;;;11.40;;
55800;SDS011;41730;51.960;20.158;2023-11-18T14:29:02;22.30;;;12.20;;
55800;SDS011;41730;51.960;20.158;2023-11-18T14:31:35;22.00;;;11.80;;
55800;SDS011;41730;51.960;20.158;2023-11-18T14:34:06;22.80;;;11.10;;
55800;SDS011;41730;51.960;20.158;2023-11-18T14:36:38;19.00;;;10.30;;
55800;SDS011;41730;51.960;20.158;2023-11-18T14:39:12;27.20;;;20.00;;
55800;SDS011;41730;51.960;20.158;2023-11-18T14:41:46;20.90;;;10.60;;
55800;SDS011;41730;51.960;20.158;2023-11-18T14:44:18;20.80;;;10.70;;
55800;SDS011;41730;51.960;20.158;2023-11-18T14:46:52;16.50;;;9.40;;
55800;SDS011;41730;51.960;20.158;2023-11-18T14:49:26;17.90;;;9.30;;
55800;SDS011;41730;51.960;20.158;2023-11-18T14:51:59;19.50;;;10.10;;
55800;SDS011;41730;51.960;20.158;2023-11-18T14:54:31;13.30;;;6.50;;
55800;SDS011;41730;51.960;20.158;2023-11-18T14:57:05;16.50;;;8.60;;
55800;SDS011;41730;51.960;20.158;2023-11-18T14:59:37;26.40;;;13.70;;
55800;SDS011;41730;51.960;20.158;2023-11-18T15:02:10;32.70;;;15.70;;
55800;SDS011;41730;51.960;20.158;2023-11-18T15:04:43;31.40;;;15.40;;
55800;SDS011;41730;51.960;20.158;2023-11-18T15:07:16;25.90;;;14.50;;
55800;SDS011;41730;51.960;20.158;2023-11-18T15:09:48;25.50;;;13.60;;
55800;SDS011;41730;51.960;20.158;2023-11-18T15:12:20;26.40;;;13.50;;
55800;SDS011;41730;51.960;20.158;2023-11-18T15:14:52;30.60;;;15.00;;
55800;SDS011;41730;51.960;20.158;2023-11-18T15:17:24;25.30;;;11.70;;
55800;SDS011;41730;51.960;20.158;2023-11-18T15:20:13;24.80;;;13.20;;
55800;SDS011;41730;51.960;20.158;2023-11-18T15:22:47;23.70;;;12.50;;
55800;SDS011;41730;51.960;20.158;2023-11-18T15:25:19;21.20;;;10.40;;